sensor_id;sensor_type;location;lat;lon;timestamp;noise_LAeq;noise_LA_min;noise_LA_max;noise_LA01;noise_LA95
69619;Laerm;57653;51.434;5.984;2022-08-19T00:00:10;38.72;34.23;45.12;;
69619;Laerm;57653;51.434;5.984;2022-08-19T00:00:20;35.66;34.32;37.13;;
69619;Laerm;57653;51.434;5.984;2022-08-19T00:00:31;35.70;34.72;39.92;;
69619;Laerm;57653;51.434;5.984;2022-08-19T00:00:42;43.01;34.68;60.85;;
69619;Laerm;57653;51.434;5.984;2022-08-19T00:00:52;35.63;34.35;36.80;;
69619;Laerm;57653;51.434;5.984;2022-08-19T00:01:02;35.61;34.31;36.71;;
69619;Laerm;57653;51.434;5.984;2022-08-19T00:01:13;35.66;34.62;36.83;;
69619;Laerm;57653;51.434;5.984;2022-08-19T00:01:24;35.62;34.03;36.73;;
69619;Laerm;57653;51.434;5.984;2022-08-19T00:01:36;35.67;34.48;36.84;;
69619;Laerm;57653;51.434;5.984;2022-08-19T00:01:47;35.82;34.37;44.09;;
69619;Laerm;57653;51.434;5.984;2022-08-19T00:01:57;35.71;34.18;38.48;;
69619;Laerm;57653;51.434;5.984;2022-08-19T00:02:08;36.29;34.30;50.02;;
69619;Laerm;57653;51.434;5.984;2022-08-19T00:02:18;35.69;34.48;39.73;;
69619;Laerm;57653;51.434;5.984;2022-08-19T00:02:28;35.73;34.46;37.86;;
69619;Laerm;57653;51.434;5.984;2022-08-19T00:02:39;35.82;34.50;40.67;;
69619;Laerm;57653;51.434;5.984;2022-08-19T00:02:50;35.70;34.66;36.95;;
69619;Laerm;57653;51.434;5.984;2022-08-19T00:03:01;35.78;34.25;36.77;;
69619;Laerm;57653;51.434;5.984;2022-08-19T00:03:11;35.89;34.72;37.33;;
69619;Laerm;57653;51.434;5.984;2022-08-19T00:03:22;35.90;34.73;37.01;;
69619;Laerm;57653;51.434;5.984;2022-08-19T00:03:32;35.80;34.33;36.95;;
69619;Laerm;57653;51.434;5.984;2022-08-19T00:03:42;35.65;34.51;38.40;;
69619;Laerm;57653;51.434;5.984;2022-08-19T00:03:53;35.74;34.65;37.24;;
69619;Laerm;57653;51.434;5.984;2022-08-19T00:04:04;35.94;34.64;37.27;;
69619;Laerm;57653;51.434;5.984;2022-08-19T00:04:16;35.85;34.56;37.02;;
69619;Laerm;57653;51.434;5.984;2022-08-19T00:04:28;35.76;34.67;37.11;;
69619;Laerm;57653;51.434;5.984;2022-08-19T00:04:39;35.90;34.82;42.64;;
69619;Laerm;57653;51.434;5.984;2022-08-19T00:04:50;35.79;34.72;36.89;;
69619;Laerm;57653;51.434;5.984;2022-08-19T00:05:03;35.78;34.21;36.94;;
69619;Laerm;57653;51.434;5.984;2022-08-19T00:05:14;35.73;34.34;36.96;;
69619;Laerm;57653;51.434;5.984;2022-08-19T00:05:25;35.69;34.55;37.95;;
69619;Laerm;57653;51.434;5.984;2022-08-19T00:05:35;35.80;34.66;37.18;;
69619;Laerm;57653;51.434;5.984;2022-08-19T00:05:46;35.72;34.56;38.42;;
69619;Laerm;57653;51.434;5.984;2022-08-19T00:05:56;35.76;34.73;37.61;;
69619;Laerm;57653;51.434;5.984;2022-08-19T00:06:06;35.79;34.38;38.37;;
69619;Laerm;57653;51.434;5.984;2022-08-19T00:06:17;35.76;34.63;38.50;;
69619;Laerm;57653;51.434;5.984;2022-08-19T00:06:28;35.77;34.43;40.35;;
69619;Laerm;57653;51.434;5.984;2022-08-19T00:06:39;35.73;34.66;36.86;;
69619;Laerm;57653;51.434;5.984;2022-08-19T00:06:50;35.70;34.53;36.77;;
69619;Laerm;57653;51.434;5.984;2022-08-19T00:07:00;35.91;34.29;42.09;;
69619;Laerm;57653;51.434;5.984;2022-08-19T00:07:10;35.87;34.47;38.44;;
69619;Laerm;57653;51.434;5.984;2022-08-19T00:07:21;36.10;34.90;37.50;;
69619;Laerm;57653;51.434;5.984;2022-08-19T00:07:31;36.00;34.69;37.76;;
69619;Laerm;57653;51.434;5.984;2022-08-19T00:07:42;35.85;34.75;36.96;;
69619;Laerm;57653;51.434;5.984;2022-08-19T00:07:53;35.87;34.56;36.92;;
69619;Laerm;57653;51.434;5.984;2022-08-19T00:08:03;35.95;34.43;37.96;;
69619;Laerm;57653;51.434;5.984;2022-08-19T00:08:13;35.90;34.76;37.07;;
69619;Laerm;57653;51.434;5.984;2022-08-19T00:08:23;35.86;34.75;37.09;;
69619;Laerm;57653;51.434;5.984;2022-08-19T00:08:34;35.93;34.65;37.37;;
69619;Laerm;57653;51.434;5.984;2022-08-19T00:08:44;35.80;34.61;38.14;;
69619;Laerm;57653;51.434;5.984;2022-08-19T00:08:55;36.29;34.62;42.92;;
69619;Laerm;57653;51.434;5.984;2022-08-19T00:09:06;36.33;34.35;38.08;;
69619;Laerm;57653;51.434;5.984;2022-08-19T00:09:18;35.90;34.59;37.08;;
69619;Laerm;57653;51.434;5.984;2022-08-19T00:09:29;35.99;34.88;37.14;;
69619;Laerm;57653;51.434;5.984;2022-08-19T00:09:39;35.97;34.52;37.50;;
69619;Laerm;57653;51.434;5.984;2022-08-19T00:09:49;36.19;34.45;39.16;;
69619;Laerm;57653;51.434;5.984;2022-08-19T00:10:00;35.91;34.31;37.72;;
69619;Laerm;57653;51.434;5.984;2022-08-19T00:10:11;35.88;34.62;37.02;;
69619;Laerm;57653;51.434;5.984;2022-08-19T00:10:22;35.88;34.53;40.26;;
69619;Laerm;57653;51.434;5.984;2022-08-19T00:10:34;36.03;34.58;41.00;;
69619;Laerm;57653;51.434;5.984;2022-08-19T00:10:44;35.89;34.78;37.30;;
69619;Laerm;57653;51.434;5.984;2022-08-19T00:10:55;35.89;34.55;38.28;;
69619;Laerm;57653;51.434;5.984;2022-08-19T00:11:06;35.79;34.72;36.78;;
69619;Laerm;57653;51.434;5.984;2022-08-19T00:11:17;35.78;34.83;37.21;;
69619;Laerm;57653;51.434;5.984;2022-08-19T00:11:27;35.88;34.73;37.19;;
69619;Laerm;57653;51.434;5.984;2022-08-19T00:11:38;35.99;34.60;41.53;;
69619;Laerm;57653;51.434;5.984;2022-08-19T00:11:48;35.96;34.89;39.76;;
69619;Laerm;57653;51.434;5.984;2022-08-19T00:11:59;35.85;34.49;37.04;;
69619;Laerm;57653;51.434;5.984;2022-08-19T00:12:09;35.82;34.39;37.16;;
69619;Laerm;57653;51.434;5.984;2022-08-19T00:12:20;35.78;34.63;37.04;;
69619;Laerm;57653;51.434;5.984;2022-08-19T00:12:30;35.81;34.66;36.83;;
69619;Laerm;57653;51.434;5.984;2022-08-19T00:12:41;35.96;34.90;38.47;;
69619;Laerm;57653;51.434;5.984;2022-08-19T00:12:51;35.82;34.53;37.00;;
69619;Laerm;57653;51.434;5.984;2022-08-19T00:13:02;35.99;34.49;41.30;;
69619;Laerm;57653;51.434;5.984;2022-08-19T00:13:14;36.05;34.72;46.82;;
69619;Laerm;57653;51.434;5.984;2022-08-19T00:13:25;35.85;34.33;36.88;;
69619;Laerm;57653;51.434;5.984;2022-08-19T00:13:38;35.91;34.71;36.95;;
69619;Laerm;57653;51.434;5.984;2022-08-19T00:13:48;35.90;34.63;37.27;;
69619;Laerm;57653;51.434;5.984;2022-08-19T00:13:59;35.87;34.41;37.14;;
69619;Laerm;57653;51.434;5.984;2022-08-19T00:14:10;35.90;34.60;37.46;;
69619;Laerm;57653;51.434;5.984;2022-08-19T00:14:21;35.80;34.66;37.39;;
69619;Laerm;57653;51.434;5.984;2022-08-19T00:14:32;35.82;34.47;37.47;;
69619;Laerm;57653;51.434;5.984;2022-08-19T00:14:42;35.81;34.64;37.11;;
69619;Laerm;57653;51.434;5.984;2022-08-19T00:14:52;36.06;34.78;44.26;;
69619;Laerm;57653;51.434;5.984;2022-08-19T00:15:05;35.83;34.74;37.27;;
69619;Laerm;57653;51.434;5.984;2022-08-19T00:15:17;35.72;34.68;37.13;;
69619;Laerm;57653;51.434;5.984;2022-08-19T00:15:28;35.73;34.25;39.48;;
69619;Laerm;57653;51.434;5.984;2022-08-19T00:15:38;35.88;34.61;43.49;;
69619;Laerm;57653;51.434;5.984;2022-08-19T00:15:49;35.81;34.21;37.67;;
69619;Laerm;57653;51.434;5.984;2022-08-19T00:15:59;35.84;34.88;37.80;;
69619;Laerm;57653;51.434;5.984;2022-08-19T00:16:10;35.74;34.52;37.12;;
69619;Laerm;57653;51.434;5.984;2022-08-19T00:16:21;35.82;34.57;37.85;;
69619;Laerm;57653;51.434;5.984;2022-08-19T00:16:31;35.73;34.56;37.10;;
69619;Laerm;57653;51.434;5.984;2022-08-19T00:16:43;35.80;34.47;37.09;;
69619;Laerm;57653;51.434;5.984;2022-08-19T00:16:54;35.68;34.34;36.74;;
69619;Laerm;57653;51.434;5.984;2022-08-19T00:17:05;35.79;34.56;36.95;;
69619;Laerm;57653;51.434;5.984;2022-08-19T00:17:16;35.77;34.43;36.79;;
69619;Laerm;57653;51.434;5.984;2022-08-19T00:17:26;35.80;34.61;41.77;;
69619;Laerm;57653;51.434;5.984;2022-08-19T00:17:37;35.66;34.24;36.57;;
69619;Laerm;57653;51.434;5.984;2022-08-19T00:17:48;35.72;34.06;36.72;;
69619;Laerm;57653;51.434;5.984;2022-08-19T00:17:58;35.72;34.20;39.05;;
69619;Laerm;57653;51.434;5.984;2022-08-19T00:18:08;36.38;34.71;51.94;;
69619;Laerm;57653;51.434;5.984;2022-08-19T00:18:20;35.77;34.44;36.77;;
69619;Laerm;57653;51.434;5.984;2022-08-19T00:18:30;35.67;34.45;36.90;;
69619;Laerm;57653;51.434;5.984;2022-08-19T00:18:40;35.67;34.46;36.73;;
69619;Laerm;57653;51.434;5.984;2022-08-19T00:18:51;35.84;34.50;43.04;;
69619;Laerm;57653;51.434;5.984;2022-08-19T00:19:02;35.73;34.52;39.11;;
69619;Laerm;57653;51.434;5.984;2022-08-19T00:19:13;35.74;33.63;36.86;;
69619;Laerm;57653;51.434;5.984;2022-08-19T00:19:23;35.71;34.74;36.78;;
69619;Laerm;57653;51.434;5.984;2022-08-19T00:19:34;35.80;34.50;37.01;;
69619;Laerm;57653;51.434;5.984;2022-08-19T00:19:44;35.70;34.64;36.70;;
69619;Laerm;57653;51.434;5.984;2022-08-19T00:19:54;36.27;34.61;47.33;;
69619;Laerm;57653;51.434;5.984;2022-08-19T00:20:05;35.76;34.64;36.81;;
69619;Laerm;57653;51.434;5.984;2022-08-19T00:20:17;35.92;34.15;39.55;;
69619;Laerm;57653;51.434;5.984;2022-08-19T00:20:28;35.73;34.02;37.87;;
69619;Laerm;57653;51.434;5.984;2022-08-19T00:20:38;35.71;34.52;36.88;;
69619;Laerm;57653;51.434;5.984;2022-08-19T00:20:50;35.76;34.49;36.96;;
69619;Laerm;57653;51.434;5.984;2022-08-19T00:21:00;35.87;34.81;37.81;;
69619;Laerm;57653;51.434;5.984;2022-08-19T00:21:11;35.83;34.47;37.15;;
69619;Laerm;57653;51.434;5.984;2022-08-19T00:21:22;35.82;34.35;37.18;;
69619;Laerm;57653;51.434;5.984;2022-08-19T00:21:32;35.78;34.61;36.91;;
69619;Laerm;57653;51.434;5.984;2022-08-19T00:21:43;35.76;34.59;37.22;;
69619;Laerm;57653;51.434;5.984;2022-08-19T00:21:53;35.64;34.69;37.37;;
69619;Laerm;57653;51.434;5.984;2022-08-19T00:22:05;35.77;34.49;37.06;;
69619;Laerm;57653;51.434;5.984;2022-08-19T00:22:15;35.67;34.33;36.82;;
69619;Laerm;57653;51.434;5.984;2022-08-19T00:22:27;35.73;34.46;37.10;;
69619;Laerm;57653;51.434;5.984;2022-08-19T00:22:38;35.76;34.67;37.41;;
69619;Laerm;57653;51.434;5.984;2022-08-19T00:22:51;35.98;34.63;37.47;;
69619;Laerm;57653;51.434;5.984;2022-08-19T00:23:01;35.65;34.67;36.85;;
69619;Laerm;57653;51.434;5.984;2022-08-19T00:23:14;35.86;34.41;37.14;;
69619;Laerm;57653;51.434;5.984;2022-08-19T00:23:25;35.75;34.32;36.84;;
69619;Laerm;57653;51.434;5.984;2022-08-19T00:23:36;35.77;34.35;37.03;;
69619;Laerm;57653;51.434;5.984;2022-08-19T00:23:46;35.83;34.68;37.08;;
69619;Laerm;57653;51.434;5.984;2022-08-19T00:23:57;35.82;34.57;37.65;;
69619;Laerm;57653;51.434;5.984;2022-08-19T00:24:11;35.91;34.36;44.83;;
69619;Laerm;57653;51.434;5.984;2022-08-19T00:24:23;36.16;34.83;37.95;;
69619;Laerm;57653;51.434;5.984;2022-08-19T00:24:33;36.83;35.00;38.99;;
69619;Laerm;57653;51.434;5.984;2022-08-19T00:24:45;35.82;34.56;37.02;;
69619;Laerm;57653;51.434;5.984;2022-08-19T00:24:55;35.79;34.43;38.31;;
69619;Laerm;57653;51.434;5.984;2022-08-19T00:25:05;35.69;34.26;36.94;;
69619;Laerm;57653;51.434;5.984;2022-08-19T00:25:16;35.69;34.59;36.83;;
69619;Laerm;57653;51.434;5.984;2022-08-19T00:25:26;35.70;34.29;36.99;;
69619;Laerm;57653;51.434;5.984;2022-08-19T00:25:37;35.71;34.66;36.94;;
69619;Laerm;57653;51.434;5.984;2022-08-19T00:25:47;35.73;34.48;36.90;;
69619;Laerm;57653;51.434;5.984;2022-08-19T00:25:57;35.75;34.35;41.13;;
69619;Laerm;57653;51.434;5.984;2022-08-19T00:26:07;35.68;34.82;36.89;;
69619;Laerm;57653;51.434;5.984;2022-08-19T00:26:19;35.80;34.38;37.20;;
69619;Laerm;57653;51.434;5.984;2022-08-19T00:26:29;35.73;34.40;36.86;;
69619;Laerm;57653;51.434;5.984;2022-08-19T00:26:40;35.79;34.70;37.00;;
69619;Laerm;57653;51.434;5.984;2022-08-19T00:26:51;35.75;34.39;37.30;;
69619;Laerm;57653;51.434;5.984;2022-08-19T00:27:01;35.69;34.34;36.94;;
69619;Laerm;57653;51.434;5.984;2022-08-19T00:27:12;35.72;34.52;37.12;;
69619;Laerm;57653;51.434;5.984;2022-08-19T00:27:22;35.82;34.29;37.31;;
69619;Laerm;57653;51.434;5.984;2022-08-19T00:27:33;35.63;34.39;36.70;;
69619;Laerm;57653;51.434;5.984;2022-08-19T00:27:43;35.73;34.56;37.17;;
69619;Laerm;57653;51.434;5.984;2022-08-19T00:27:53;35.69;34.65;36.77;;
69619;Laerm;57653;51.434;5.984;2022-08-19T00:28:04;35.70;34.44;36.81;;
69619;Laerm;57653;51.434;5.984;2022-08-19T00:28:14;35.68;34.46;36.89;;
69619;Laerm;57653;51.434;5.984;2022-08-19T00:28:24;35.75;34.59;37.38;;
69619;Laerm;57653;51.434;5.984;2022-08-19T00:28:35;35.71;34.69;36.88;;
69619;Laerm;57653;51.434;5.984;2022-08-19T00:28:45;35.72;34.44;37.05;;
69619;Laerm;57653;51.434;5.984;2022-08-19T00:28:57;35.68;34.10;36.94;;
69619;Laerm;57653;51.434;5.984;2022-08-19T00:29:08;35.72;34.38;36.76;;
69619;Laerm;57653;51.434;5.984;2022-08-19T00:29:19;35.64;34.45;36.99;;
69619;Laerm;57653;51.434;5.984;2022-08-19T00:29:30;35.75;34.40;43.01;;
69619;Laerm;57653;51.434;5.984;2022-08-19T00:29:41;35.66;34.42;36.90;;
69619;Laerm;57653;51.434;5.984;2022-08-19T00:29:51;35.55;34.37;36.68;;
69619;Laerm;57653;51.434;5.984;2022-08-19T00:30:02;35.58;34.13;36.76;;
69619;Laerm;57653;51.434;5.984;2022-08-19T00:30:14;35.74;34.41;36.92;;
69619;Laerm;57653;51.434;5.984;2022-08-19T00:30:24;35.64;34.21;37.10;;
69619;Laerm;57653;51.434;5.984;2022-08-19T00:30:36;35.68;34.35;36.97;;
69619;Laerm;57653;51.434;5.984;2022-08-19T00:30:46;35.59;34.12;36.78;;
69619;Laerm;57653;51.434;5.984;2022-08-19T00:30:57;35.57;34.27;36.77;;
69619;Laerm;57653;51.434;5.984;2022-08-19T00:31:07;36.30;34.32;43.26;;
69619;Laerm;57653;51.434;5.984;2022-08-19T00:31:18;35.70;34.33;37.00;;
69619;Laerm;57653;51.434;5.984;2022-08-19T00:31:28;35.70;34.41;37.53;;
69619;Laerm;57653;51.434;5.984;2022-08-19T00:31:39;35.64;34.51;36.93;;
69619;Laerm;57653;51.434;5.984;2022-08-19T00:31:51;35.64;34.54;37.08;;
69619;Laerm;57653;51.434;5.984;2022-08-19T00:32:06;35.65;34.15;36.90;;
69619;Laerm;57653;51.434;5.984;2022-08-19T00:32:17;35.68;34.41;36.78;;
69619;Laerm;57653;51.434;5.984;2022-08-19T00:32:27;35.71;34.45;36.89;;
69619;Laerm;57653;51.434;5.984;2022-08-19T00:32:37;35.76;34.45;36.81;;
69619;Laerm;57653;51.434;5.984;2022-08-19T00:32:48;35.79;34.64;37.38;;
69619;Laerm;57653;51.434;5.984;2022-08-19T00:32:59;35.82;34.42;45.57;;
69619;Laerm;57653;51.434;5.984;2022-08-19T00:33:09;35.78;34.41;36.88;;
69619;Laerm;57653;51.434;5.984;2022-08-19T00:33:19;35.66;34.21;36.83;;
69619;Laerm;57653;51.434;5.984;2022-08-19T00:33:30;35.78;34.47;37.26;;
69619;Laerm;57653;51.434;5.984;2022-08-19T00:33:43;35.76;34.35;36.90;;
69619;Laerm;57653;51.434;5.984;2022-08-19T00:33:54;35.72;34.53;36.98;;
69619;Laerm;57653;51.434;5.984;2022-08-19T00:34:04;35.87;34.52;37.20;;
69619;Laerm;57653;51.434;5.984;2022-08-19T00:34:14;35.81;34.61;37.23;;
69619;Laerm;57653;51.434;5.984;2022-08-19T00:34:25;35.80;34.78;37.11;;
69619;Laerm;57653;51.434;5.984;2022-08-19T00:34:38;35.80;34.37;37.11;;
69619;Laerm;57653;51.434;5.984;2022-08-19T00:34:48;35.67;34.25;36.74;;
69619;Laerm;57653;51.434;5.984;2022-08-19T00:34:58;35.97;34.66;37.43;;
69619;Laerm;57653;51.434;5.984;2022-08-19T00:35:09;35.88;34.65;37.13;;
69619;Laerm;57653;51.434;5.984;2022-08-19T00:35:19;36.10;34.63;37.56;;
69619;Laerm;57653;51.434;5.984;2022-08-19T00:35:30;38.83;35.66;41.97;;
69619;Laerm;57653;51.434;5.984;2022-08-19T00:35:40;44.21;40.08;48.79;;
69619;Laerm;57653;51.434;5.984;2022-08-19T00:35:50;59.49;47.66;65.06;;
69619;Laerm;57653;51.434;5.984;2022-08-19T00:36:02;64.53;62.45;67.01;;
69619;Laerm;57653;51.434;5.984;2022-08-19T00:36:14;63.61;56.14;67.52;;
69619;Laerm;57653;51.434;5.984;2022-08-19T00:36:25;51.69;39.60;59.43;;
69619;Laerm;57653;51.434;5.984;2022-08-19T00:36:35;39.35;36.32;42.59;;
69619;Laerm;57653;51.434;5.984;2022-08-19T00:36:47;36.54;35.02;38.16;;
69619;Laerm;57653;51.434;5.984;2022-08-19T00:36:58;36.27;34.60;47.19;;
69619;Laerm;57653;51.434;5.984;2022-08-19T00:37:08;35.96;34.46;37.55;;
69619;Laerm;57653;51.434;5.984;2022-08-19T00:37:19;35.94;34.72;37.12;;
69619;Laerm;57653;51.434;5.984;2022-08-19T00:37:32;35.82;34.56;37.18;;
69619;Laerm;57653;51.434;5.984;2022-08-19T00:37:44;35.86;34.44;41.69;;
69619;Laerm;57653;51.434;5.984;2022-08-19T00:37:55;35.80;34.32;37.08;;
69619;Laerm;57653;51.434;5.984;2022-08-19T00:38:05;35.85;34.12;37.17;;
69619;Laerm;57653;51.434;5.984;2022-08-19T00:38:16;35.82;34.04;37.01;;
69619;Laerm;57653;51.434;5.984;2022-08-19T00:38:26;35.80;34.54;37.31;;
69619;Laerm;57653;51.434;5.984;2022-08-19T00:38:38;35.83;34.48;37.05;;
69619;Laerm;57653;51.434;5.984;2022-08-19T00:38:52;35.84;34.43;36.91;;
69619;Laerm;57653;51.434;5.984;2022-08-19T00:39:03;35.83;34.51;36.81;;
69619;Laerm;57653;51.434;5.984;2022-08-19T00:39:14;35.81;34.61;37.19;;
69619;Laerm;57653;51.434;5.984;2022-08-19T00:39:25;35.80;34.47;37.26;;
69619;Laerm;57653;51.434;5.984;2022-08-19T00:39:35;35.78;34.65;38.54;;
69619;Laerm;57653;51.434;5.984;2022-08-19T00:39:46;35.82;34.42;37.31;;
69619;Laerm;57653;51.434;5.984;2022-08-19T00:39:56;35.77;34.51;36.86;;
69619;Laerm;57653;51.434;5.984;2022-08-19T00:40:07;35.97;34.60;43.73;;
69619;Laerm;57653;51.434;5.984;2022-08-19T00:40:17;35.79;34.31;37.22;;
69619;Laerm;57653;51.434;5.984;2022-08-19T00:40:29;35.77;34.33;37.12;;
69619;Laerm;57653;51.434;5.984;2022-08-19T00:40:42;35.70;34.43;37.11;;
69619;Laerm;57653;51.434;5.984;2022-08-19T00:40:53;36.14;34.25;43.04;;
69619;Laerm;57653;51.434;5.984;2022-08-19T00:41:05;36.12;34.82;41.44;;
69619;Laerm;57653;51.434;5.984;2022-08-19T00:41:16;35.85;34.30;38.24;;
69619;Laerm;57653;51.434;5.984;2022-08-19T00:41:28;35.91;34.39;40.37;;
69619;Laerm;57653;51.434;5.984;2022-08-19T00:41:38;35.83;33.80;41.94;;
69619;Laerm;57653;51.434;5.984;2022-08-19T00:41:49;35.56;34.35;36.86;;
69619;Laerm;57653;51.434;5.984;2022-08-19T00:41:59;35.51;34.16;36.86;;
69619;Laerm;57653;51.434;5.984;2022-08-19T00:42:10;35.58;34.39;36.64;;
69619;Laerm;57653;51.434;5.984;2022-08-19T00:42:20;35.60;34.40;36.77;;
69619;Laerm;57653;51.434;5.984;2022-08-19T00:42:31;35.53;34.21;37.80;;
69619;Laerm;57653;51.434;5.984;2022-08-19T00:42:41;35.50;34.06;37.07;;
69619;Laerm;57653;51.434;5.984;2022-08-19T00:42:53;35.59;34.32;42.31;;
69619;Laerm;57653;51.434;5.984;2022-08-19T00:43:10;35.66;34.27;37.08;;
69619;Laerm;57653;51.434;5.984;2022-08-19T00:43:22;35.61;34.46;37.36;;
69619;Laerm;57653;51.434;5.984;2022-08-19T00:43:33;35.59;34.29;37.00;;
69619;Laerm;57653;51.434;5.984;2022-08-19T00:43:43;35.51;34.40;37.92;;
69619;Laerm;57653;51.434;5.984;2022-08-19T00:44:13;35.57;34.28;37.52;;
69619;Laerm;57653;51.434;5.984;2022-08-19T00:44:26;35.65;34.36;36.82;;
69619;Laerm;57653;51.434;5.984;2022-08-19T00:44:37;35.60;34.22;37.89;;
69619;Laerm;57653;51.434;5.984;2022-08-19T00:44:48;35.69;34.21;36.72;;
69619;Laerm;57653;51.434;5.984;2022-08-19T00:44:59;35.64;34.41;36.76;;
69619;Laerm;57653;51.434;5.984;2022-08-19T00:45:14;35.62;34.55;36.87;;
69619;Laerm;57653;51.434;5.984;2022-08-19T00:45:25;35.55;34.15;36.94;;
69619;Laerm;57653;51.434;5.984;2022-08-19T00:45:36;35.50;34.22;36.74;;
69619;Laerm;57653;51.434;5.984;2022-08-19T00:45:46;35.58;34.38;36.60;;
69619;Laerm;57653;51.434;5.984;2022-08-19T00:45:58;35.63;34.25;36.77;;
69619;Laerm;57653;51.434;5.984;2022-08-19T00:46:09;35.65;34.46;36.86;;
69619;Laerm;57653;51.434;5.984;2022-08-19T00:46:19;35.84;34.56;42.25;;
69619;Laerm;57653;51.434;5.984;2022-08-19T00:46:30;35.69;33.97;39.26;;
69619;Laerm;57653;51.434;5.984;2022-08-19T00:46:43;35.66;34.08;39.51;;
69619;Laerm;57653;51.434;5.984;2022-08-19T00:46:55;35.68;34.33;36.84;;
69619;Laerm;57653;51.434;5.984;2022-08-19T00:47:07;35.73;34.61;37.31;;
69619;Laerm;57653;51.434;5.984;2022-08-19T00:47:17;35.73;34.32;37.12;;
69619;Laerm;57653;51.434;5.984;2022-08-19T00:47:27;35.70;34.56;36.84;;
69619;Laerm;57653;51.434;5.984;2022-08-19T00:47:38;35.72;34.50;36.82;;
69619;Laerm;57653;51.434;5.984;2022-08-19T00:47:48;35.60;34.59;36.76;;
69619;Laerm;57653;51.434;5.984;2022-08-19T00:47:59;35.56;34.55;36.71;;
69619;Laerm;57653;51.434;5.984;2022-08-19T00:48:14;35.66;34.31;36.80;;
69619;Laerm;57653;51.434;5.984;2022-08-19T00:48:24;35.58;34.44;37.30;;
69619;Laerm;57653;51.434;5.984;2022-08-19T00:48:35;36.09;34.52;43.02;;
69619;Laerm;57653;51.434;5.984;2022-08-19T00:48:46;35.71;34.07;36.89;;
69619;Laerm;57653;51.434;5.984;2022-08-19T00:48:56;35.64;34.29;36.63;;
69619;Laerm;57653;51.434;5.984;2022-08-19T00:49:27;35.74;34.37;36.87;;
69619;Laerm;57653;51.434;5.984;2022-08-19T00:49:40;37.10;34.10;53.49;;
69619;Laerm;57653;51.434;5.984;2022-08-19T00:49:52;35.68;34.42;36.76;;
69619;Laerm;57653;51.434;5.984;2022-08-19T00:50:04;35.63;34.10;37.03;;
69619;Laerm;57653;51.434;5.984;2022-08-19T00:50:15;35.77;34.37;37.18;;
69619;Laerm;57653;51.434;5.984;2022-08-19T00:50:26;35.78;34.66;36.92;;
69619;Laerm;57653;51.434;5.984;2022-08-19T00:50:39;35.83;34.40;37.15;;
69619;Laerm;57653;51.434;5.984;2022-08-19T00:50:51;35.78;34.35;43.78;;
69619;Laerm;57653;51.434;5.984;2022-08-19T00:51:03;35.80;34.61;39.01;;
69619;Laerm;57653;51.434;5.984;2022-08-19T00:51:14;35.86;34.83;37.18;;
69619;Laerm;57653;51.434;5.984;2022-08-19T00:51:25;35.70;34.48;36.87;;
69619;Laerm;57653;51.434;5.984;2022-08-19T00:51:37;35.72;34.57;37.04;;
69619;Laerm;57653;51.434;5.984;2022-08-19T00:51:48;35.67;34.23;36.76;;
69619;Laerm;57653;51.434;5.984;2022-08-19T00:52:02;35.70;34.47;37.07;;
69619;Laerm;57653;51.434;5.984;2022-08-19T00:52:17;35.71;34.33;36.93;;
69619;Laerm;57653;51.434;5.984;2022-08-19T00:52:30;35.75;34.60;37.09;;
69619;Laerm;57653;51.434;5.984;2022-08-19T00:52:43;35.75;34.54;38.48;;
69619;Laerm;57653;51.434;5.984;2022-08-19T00:52:55;35.71;34.34;36.89;;
69619;Laerm;57653;51.434;5.984;2022-08-19T00:53:06;35.83;34.40;39.36;;
69619;Laerm;57653;51.434;5.984;2022-08-19T00:53:18;35.77;34.37;37.01;;
69619;Laerm;57653;51.434;5.984;2022-08-19T00:53:29;35.84;34.35;40.74;;
69619;Laerm;57653;51.434;5.984;2022-08-19T00:53:41;35.75;34.51;38.59;;
69619;Laerm;57653;51.434;5.984;2022-08-19T00:53:52;35.71;34.36;36.92;;
69619;Laerm;57653;51.434;5.984;2022-08-19T00:54:03;35.90;34.72;40.97;;
69619;Laerm;57653;51.434;5.984;2022-08-19T00:54:14;35.92;34.74;37.31;;
69619;Laerm;57653;51.434;5.984;2022-08-19T00:54:24;36.00;34.48;37.78;;
69619;Laerm;57653;51.434;5.984;2022-08-19T00:54:35;35.93;34.30;37.95;;
69619;Laerm;57653;51.434;5.984;2022-08-19T00:54:46;35.83;34.61;37.12;;
69619;Laerm;57653;51.434;5.984;2022-08-19T00:54:58;35.76;34.46;38.53;;
69619;Laerm;57653;51.434;5.984;2022-08-19T00:55:09;36.01;34.71;37.33;;
69619;Laerm;57653;51.434;5.984;2022-08-19T00:55:23;36.13;34.47;37.85;;
69619;Laerm;57653;51.434;5.984;2022-08-19T00:55:34;36.10;34.63;37.29;;
69619;Laerm;57653;51.434;5.984;2022-08-19T00:55:45;35.93;34.46;37.12;;
69619;Laerm;57653;51.434;5.984;2022-08-19T00:55:56;35.92;34.59;39.06;;
69619;Laerm;57653;51.434;5.984;2022-08-19T00:56:08;35.79;34.41;37.28;;
69619;Laerm;57653;51.434;5.984;2022-08-19T00:56:18;35.86;34.71;37.18;;
69619;Laerm;57653;51.434;5.984;2022-08-19T00:56:29;35.81;34.86;37.19;;
69619;Laerm;57653;51.434;5.984;2022-08-19T00:56:41;35.81;34.54;36.85;;
69619;Laerm;57653;51.434;5.984;2022-08-19T00:56:51;35.72;34.53;36.96;;
69619;Laerm;57653;51.434;5.984;2022-08-19T00:57:03;35.71;34.27;36.83;;
69619;Laerm;57653;51.434;5.984;2022-08-19T00:57:16;35.69;34.58;36.80;;
69619;Laerm;57653;51.434;5.984;2022-08-19T00:57:30;35.71;34.28;36.82;;
69619;Laerm;57653;51.434;5.984;2022-08-19T00:57:43;35.84;34.63;37.01;;
69619;Laerm;57653;51.434;5.984;2022-08-19T00:58:00;35.83;34.07;37.36;;
69619;Laerm;57653;51.434;5.984;2022-08-19T00:58:12;35.76;34.32;37.01;;
69619;Laerm;57653;51.434;5.984;2022-08-19T00:58:24;35.76;34.66;36.89;;
69619;Laerm;57653;51.434;5.984;2022-08-19T00:58:37;35.81;34.32;37.36;;
69619;Laerm;57653;51.434;5.984;2022-08-19T00:58:47;35.72;34.53;36.85;;
69619;Laerm;57653;51.434;5.984;2022-08-19T00:58:58;35.86;34.38;37.17;;
69619;Laerm;57653;51.434;5.984;2022-08-19T00:59:08;36.74;34.30;49.50;;
69619;Laerm;57653;51.434;5.984;2022-08-19T00:59:19;36.10;34.76;45.76;;
69619;Laerm;57653;51.434;5.984;2022-08-19T00:59:30;35.80;34.39;37.28;;
69619;Laerm;57653;51.434;5.984;2022-08-19T00:59:41;35.82;34.47;37.18;;
69619;Laerm;57653;51.434;5.984;2022-08-19T00:59:52;35.83;34.56;37.28;;
69619;Laerm;57653;51.434;5.984;2022-08-19T01:00:08;35.79;34.54;36.88;;
69619;Laerm;57653;51.434;5.984;2022-08-19T01:00:21;37.77;34.55;51.47;;
69619;Laerm;57653;51.434;5.984;2022-08-19T01:00:31;35.76;34.53;37.22;;
69619;Laerm;57653;51.434;5.984;2022-08-19T01:00:46;35.78;34.17;37.74;;
69619;Laerm;57653;51.434;5.984;2022-08-19T01:00:57;35.75;34.81;36.91;;
69619;Laerm;57653;51.434;5.984;2022-08-19T01:01:07;35.72;34.55;36.96;;
69619;Laerm;57653;51.434;5.984;2022-08-19T01:01:18;35.72;34.43;36.90;;
69619;Laerm;57653;51.434;5.984;2022-08-19T01:01:28;35.73;34.33;36.93;;
69619;Laerm;57653;51.434;5.984;2022-08-19T01:01:40;35.67;34.49;36.90;;
69619;Laerm;57653;51.434;5.984;2022-08-19T01:01:50;35.63;34.21;36.92;;
69619;Laerm;57653;51.434;5.984;2022-08-19T01:02:00;35.75;34.61;40.53;;
69619;Laerm;57653;51.434;5.984;2022-08-19T01:02:11;35.66;34.36;39.28;;
69619;Laerm;57653;51.434;5.984;2022-08-19T01:02:22;35.69;34.22;36.65;;
69619;Laerm;57653;51.434;5.984;2022-08-19T01:02:32;35.78;34.56;37.26;;
69619;Laerm;57653;51.434;5.984;2022-08-19T01:02:43;35.69;34.18;37.49;;